createdAt,value
2022-08-17T00:02:26.501Z,18.12
2022-08-17T00:04:50.340Z,20.27
2022-08-17T00:07:20.089Z,20.55
2022-08-17T00:09:52.986Z,20.65
2022-08-17T00:12:41.925Z,20.95
2022-08-17T00:15:00.415Z,20.45
2022-08-17T00:17:33.649Z,21.87
2022-08-17T00:20:07.502Z,20.02
2022-08-17T00:22:40.898Z,22.37
2022-08-17T00:25:19.871Z,26.87
2022-08-17T00:27:52.854Z,23.05
2022-08-17T00:30:26.978Z,22.40
2022-08-17T00:33:12.189Z,24.92
2022-08-17T00:35:34.444Z,19.45
2022-08-17T00:38:09.274Z,19.80
2022-08-17T00:40:47.080Z,20.08
2022-08-17T00:43:44.375Z,23.92
2022-08-17T00:46:21.476Z,19.35
2022-08-17T00:48:54.898Z,21.90
2022-08-17T00:51:44.887Z,22.35
2022-08-17T00:54:41.650Z,22.95
2022-08-17T00:57:28.665Z,17.07
2022-08-17T01:00:09.281Z,22.02
2022-08-17T01:02:44.972Z,25.85
2022-08-17T01:05:21.477Z,21.55
2022-08-17T01:07:56.189Z,20.05
2022-08-17T01:11:00.334Z,19.93
2022-08-17T01:13:11.624Z,18.52
2022-08-17T01:15:56.224Z,22.67
2022-08-17T01:18:29.458Z,20.88
2022-08-17T01:21:06.796Z,20.55
2022-08-17T01:23:41.568Z,20.00
2022-08-17T01:26:14.684Z,18.02
2022-08-17T01:28:54.048Z,21.37
2022-08-17T01:31:22.622Z,22.20
2022-08-17T01:33:56.136Z,22.58
2022-08-17T01:36:29.166Z,24.98
2022-08-17T01:39:02.064Z,20.37
2022-08-17T01:44:09.728Z,23.40
2022-08-17T01:46:42.909Z,22.98
2022-08-17T01:49:16.359Z,22.27
2022-08-17T01:51:49.547Z,24.67
2022-08-17T01:54:22.809Z,23.90
2022-08-17T01:56:55.740Z,19.90
2022-08-17T01:59:28.776Z,23.83
2022-08-17T02:02:02.929Z,24.85
2022-08-17T02:04:37.472Z,20.15
2022-08-17T02:07:10.450Z,20.43
2022-08-17T02:09:44.178Z,19.82
2022-08-17T02:12:37.991Z,21.37
2022-08-17T02:14:54.620Z,23.52
2022-08-17T02:17:27.501Z,23.95
2022-08-17T02:20:00.913Z,22.67
2022-08-17T02:22:34.119Z,25.20
2022-08-17T02:25:09.604Z,25.08
2022-08-17T02:27:42.738Z,23.57
2022-08-17T02:30:58.956Z,25.23
2022-08-17T02:32:53.994Z,23.70
2022-08-17T02:35:26.864Z,23.60
2022-08-17T02:37:59.688Z,24.35
2022-08-17T02:40:35.671Z,19.98
2022-08-17T02:43:10.097Z,21.65
2022-08-17T02:45:44.450Z,19.17
2022-08-17T02:48:17.383Z,26.40
2022-08-17T02:50:51.983Z,20.55
2022-08-17T02:53:25.646Z,24.30
2022-08-17T02:55:58.852Z,22.80
2022-08-17T02:58:35.292Z,24.92
2022-08-17T03:01:09.150Z,22.30
2022-08-17T03:03:42.349Z,21.65
2022-08-17T03:06:15.126Z,20.50
2022-08-17T03:08:48.802Z,21.42
2022-08-17T03:11:22.662Z,25.17
2022-08-17T03:13:55.889Z,22.17
2022-08-17T03:16:29.016Z,22.98
2022-08-17T03:19:01.998Z,22.27
2022-08-17T03:21:35.294Z,21.37
2022-08-17T03:24:09.288Z,20.52
2022-08-17T03:26:43.053Z,19.95
2022-08-17T03:29:18.126Z,25.67
2022-08-17T03:31:52.627Z,24.18
2022-08-17T03:34:25.638Z,21.82
2022-08-17T03:36:58.549Z,27.00
2022-08-17T03:39:31.554Z,26.02
2022-08-17T03:42:31.352Z,20.50
2022-08-17T03:44:51.585Z,23.75
2022-08-17T03:47:44.339Z,23.12
2022-08-17T03:50:20.779Z,24.35
2022-08-17T03:53:11.455Z,26.90
2022-08-17T03:56:02.598Z,22.55
2022-08-17T03:58:37.264Z,24.47
2022-08-17T04:01:10.450Z,25.02
2022-08-17T04:03:43.602Z,23.32
2022-08-17T04:06:16.844Z,25.65
2022-08-17T04:08:49.985Z,23.27
2022-08-17T04:11:22.999Z,20.90
2022-08-17T04:13:57.117Z,20.70
2022-08-17T04:16:30.792Z,19.90
2022-08-17T04:19:05.237Z,23.67
2022-08-17T04:21:38.200Z,25.08
2022-08-17T04:24:11.045Z,23.30
2022-08-17T04:26:53.102Z,27.75
2022-08-17T04:29:18.315Z,24.50
2022-08-17T04:31:51.209Z,22.27
2022-08-17T04:34:25.448Z,26.65
2022-08-17T04:36:58.359Z,26.10
2022-08-17T04:39:33.831Z,23.42
2022-08-17T04:42:11.095Z,18.27
2022-08-17T04:44:44.383Z,20.27
2022-08-17T04:47:17.447Z,19.98
2022-08-17T04:49:50.509Z,23.80
2022-08-17T04:52:29.864Z,27.58
2022-08-17T04:54:58.200Z,25.30
2022-08-17T04:57:31.620Z,17.85
2022-08-17T05:00:09.036Z,18.60
2022-08-17T05:02:53.405Z,23.27
2022-08-17T05:08:03.666Z,23.15
2022-08-17T05:10:45.470Z,22.02
2022-08-17T05:13:18.394Z,25.80
2022-08-17T05:16:03.529Z,20.77
2022-08-17T05:18:39.160Z,22.15
2022-08-17T05:21:12.183Z,19.98
2022-08-17T05:23:47.187Z,25.97
2022-08-17T05:26:26.953Z,21.20
2022-08-17T05:29:00.456Z,22.87
2022-08-17T05:31:34.921Z,22.82
2022-08-17T05:34:07.781Z,26.50
2022-08-17T05:36:43.907Z,28.10
2022-08-17T05:39:17.440Z,24.67
2022-08-17T05:41:50.274Z,25.45
2022-08-17T05:44:23.759Z,21.82
2022-08-17T05:46:57.091Z,22.82
2022-08-17T05:49:30.988Z,23.22
2022-08-17T05:52:22.767Z,22.13
2022-08-17T05:55:18.203Z,21.17
2022-08-17T05:58:24.433Z,21.50
2022-08-17T06:01:04.781Z,29.80
2022-08-17T06:04:00.122Z,19.42
2022-08-17T06:06:46.882Z,24.85
2022-08-17T06:09:42.370Z,22.37
2022-08-17T06:12:49.142Z,26.33
2022-08-17T06:16:04.694Z,34.00
2022-08-17T06:18:52.850Z,23.20
2022-08-17T06:21:27.450Z,26.25
2022-08-17T06:24:38.252Z,21.15
2022-08-17T06:27:45.155Z,20.05
2022-08-17T06:30:57.597Z,16.12
2022-08-17T06:33:13.377Z,23.10
2022-08-17T06:36:19.717Z,22.05
2022-08-17T06:39:02.721Z,20.90
2022-08-17T06:44:43.434Z,17.40
2022-08-17T06:47:01.444Z,20.70
2022-08-17T06:49:55.199Z,16.52
2022-08-17T06:52:46.407Z,20.85
2022-08-17T06:55:19.720Z,20.05
2022-08-17T06:57:56.852Z,23.40
2022-08-17T07:00:36.269Z,23.35
2022-08-17T07:03:18.733Z,15.85
2022-08-17T07:06:01.562Z,21.33
2022-08-17T07:09:13.065Z,19.92
2022-08-17T07:12:15.309Z,17.55
2022-08-17T07:15:05.885Z,26.17
2022-08-17T07:17:47.357Z,16.15
2022-08-17T07:20:20.813Z,15.58
2022-08-17T07:23:07.156Z,13.18
2022-08-17T07:25:40.489Z,14.78
2022-08-17T07:28:14.108Z,21.10
2022-08-17T07:30:53.498Z,17.67
2022-08-17T07:33:30.738Z,16.20
2022-08-17T07:36:04.725Z,17.48
2022-08-17T07:38:40.489Z,19.20
2022-08-17T07:41:14.220Z,18.75
2022-08-17T07:43:52.872Z,16.25
2022-08-17T07:46:54.426Z,20.10
2022-08-17T07:49:38.805Z,16.00
2022-08-17T07:52:48.261Z,19.60
2022-08-17T07:54:51.091Z,22.98
2022-08-17T07:57:34.067Z,12.25
2022-08-17T08:00:16.284Z,16.13
2022-08-17T08:02:51.512Z,21.93
2022-08-17T08:05:46.633Z,23.30
2022-08-17T08:08:07.086Z,19.92
2022-08-17T08:10:45.498Z,16.65
2022-08-17T08:13:25.316Z,23.42
2022-08-17T08:16:30.711Z,19.10
2022-08-17T08:19:06.213Z,18.90
2022-08-17T08:21:52.889Z,24.45
2022-08-17T08:24:51.850Z,27.15
2022-08-17T08:28:09.030Z,28.27
2022-08-17T08:30:47.316Z,20.30
2022-08-17T08:33:25.527Z,18.87
2022-08-17T08:36:14.668Z,21.45
2022-08-17T08:38:57.062Z,15.53
2022-08-17T08:41:52.707Z,13.98
2022-08-17T08:45:00.718Z,16.70
2022-08-17T08:48:06.017Z,20.70
2022-08-17T08:51:03.368Z,15.55
2022-08-17T08:53:49.555Z,11.65
2022-08-17T08:57:23.907Z,16.32
2022-08-17T08:59:54.146Z,15.68
2022-08-17T09:02:44.713Z,25.95
2022-08-17T09:05:54.394Z,23.60
2022-08-17T09:08:55.796Z,14.13
2022-08-17T09:11:36.201Z,13.88
2022-08-17T09:14:45.431Z,13.60
2022-08-17T09:17:18.434Z,16.27
2022-08-17T09:20:08.105Z,13.80
2022-08-17T09:22:45.670Z,17.73
2022-08-17T09:25:32.263Z,12.43
2022-08-17T09:28:09.603Z,17.27
2022-08-17T09:30:53.855Z,15.25
2022-08-17T09:36:06.964Z,13.53
2022-08-17T09:39:07.028Z,17.25
2022-08-17T09:41:48.906Z,17.07
2022-08-17T09:44:30.318Z,15.40
2022-08-17T09:47:30.923Z,15.15
2022-08-17T09:50:08.385Z,15.93
2022-08-17T09:52:42.321Z,17.07
2022-08-17T09:58:11.033Z,15.10
2022-08-17T10:00:48.750Z,18.57
2022-08-17T10:04:00.783Z,16.15
2022-08-17T10:06:38.296Z,12.50
2022-08-17T10:09:22.754Z,13.65
2022-08-17T10:12:19.754Z,12.70
2022-08-17T10:15:08.159Z,15.75
2022-08-17T10:17:56.683Z,13.22
2022-08-17T10:20:48.971Z,13.65
2022-08-17T10:23:46.314Z,11.12
2022-08-17T10:26:25.249Z,13.40
2022-08-17T10:29:08.184Z,11.05
2022-08-17T10:31:51.416Z,14.80
2022-08-17T10:35:00.347Z,11.78
2022-08-17T10:37:41.578Z,12.18
2022-08-17T10:40:49.605Z,11.83
2022-08-17T10:43:58.907Z,12.07
2022-08-17T10:46:57.819Z,11.50
2022-08-17T10:49:34.552Z,11.97
2022-08-17T10:52:30.893Z,12.47
2022-08-17T10:55:18.219Z,9.13
2022-08-17T10:57:53.506Z,8.43
2022-08-17T11:00:46.686Z,8.15
2022-08-17T11:03:25.517Z,8.98
2022-08-17T11:06:17.908Z,9.83
2022-08-17T11:09:47.603Z,7.53
2022-08-17T11:12:35.939Z,8.83
2022-08-17T11:15:34.956Z,9.65
2022-08-17T11:18:45.281Z,7.47
2022-08-17T11:22:06.186Z,10.32
2022-08-17T11:24:45.919Z,12.80
2022-08-17T11:27:31.589Z,13.08
2022-08-17T11:30:17.340Z,11.12
2022-08-17T11:32:54.433Z,10.85
2022-08-17T11:35:41.043Z,8.48
2022-08-17T11:38:23.316Z,9.35
2022-08-17T11:41:15.819Z,6.00
2022-08-17T11:43:59.438Z,7.53
2022-08-17T11:46:59.170Z,9.00
2022-08-17T11:50:27.243Z,8.55
2022-08-17T11:52:58.106Z,12.55
2022-08-17T11:55:44.334Z,12.88
2022-08-17T11:58:36.342Z,12.55
2022-08-17T12:01:16.626Z,8.60
2022-08-17T12:03:54.056Z,12.30
2022-08-17T12:06:32.419Z,10.72
2022-08-17T12:09:12.599Z,11.40
2022-08-17T12:12:12.909Z,15.15
2022-08-17T12:15:08.515Z,15.35
2022-08-17T12:17:33.606Z,14.93
2022-08-17T12:19:50.089Z,10.82
2022-08-17T12:22:33.625Z,10.50
2022-08-17T12:25:31.685Z,9.55
2022-08-17T12:28:07.796Z,8.18
2022-08-17T12:30:41.937Z,8.15
2022-08-17T12:33:25.360Z,10.40
2022-08-17T12:35:55.073Z,10.32
2022-08-17T12:38:33.332Z,8.08
2022-08-17T12:41:03.189Z,9.00
2022-08-17T12:43:36.105Z,9.20
2022-08-17T12:46:14.881Z,14.07
2022-08-17T12:48:58.837Z,9.95
2022-08-17T12:51:19.314Z,12.93
2022-08-17T12:53:55.957Z,8.47
2022-08-17T12:56:30.198Z,11.12
2022-08-17T12:59:03.256Z,10.95
2022-08-17T13:01:39.131Z,7.20
2022-08-17T13:04:15.198Z,8.85
2022-08-17T13:06:52.126Z,9.95
2022-08-17T13:09:35.868Z,8.68
2022-08-17T13:12:06.459Z,7.95
2022-08-17T13:14:47.206Z,11.22
2022-08-17T13:17:30.654Z,9.85
2022-08-17T13:20:06.923Z,8.25
2022-08-17T13:22:43.179Z,9.68
2022-08-17T13:25:18.528Z,8.88
2022-08-17T13:27:54.088Z,11.85
2022-08-17T13:30:32.479Z,12.10
2022-08-17T13:33:06.967Z,12.50
2022-08-17T13:35:50.448Z,10.30
2022-08-17T13:38:47.072Z,11.05
2022-08-17T13:41:39.213Z,11.12
2022-08-17T13:44:39.615Z,8.48
2022-08-17T13:47:20.775Z,10.23
2022-08-17T13:49:55.620Z,12.15
2022-08-17T13:52:41.459Z,8.85
2022-08-17T13:55:22.690Z,10.60
2022-08-17T13:58:06.763Z,8.78
2022-08-17T14:00:36.583Z,20.70
2022-08-17T14:03:09.729Z,8.08
2022-08-17T14:05:42.715Z,13.20
2022-08-17T14:08:17.791Z,9.37
2022-08-17T14:10:55.242Z,9.00
2022-08-17T14:13:29.036Z,8.38
2022-08-17T14:16:02.168Z,7.75
2022-08-17T14:18:55.850Z,8.55
2022-08-17T14:21:11.313Z,7.47
2022-08-17T14:23:52.675Z,7.75
2022-08-17T14:26:19.570Z,9.73
2022-08-17T14:28:56.179Z,10.98
2022-08-17T14:31:27.991Z,8.73
2022-08-17T14:34:01.192Z,10.05
2022-08-17T14:36:34.853Z,7.78
2022-08-17T14:39:08.088Z,11.53
2022-08-17T14:41:42.718Z,9.20
2022-08-17T14:44:15.769Z,8.55
2022-08-17T14:46:50.254Z,11.23
2022-08-17T14:49:23.134Z,12.95
2022-08-17T14:51:56.043Z,12.13
2022-08-17T14:54:34.311Z,12.45
2022-08-17T14:57:23.262Z,11.08
2022-08-17T14:59:40.421Z,10.38
2022-08-17T15:02:14.022Z,10.45
2022-08-17T15:04:48.248Z,12.95
2022-08-17T15:07:25.131Z,9.78
2022-08-17T15:10:00.880Z,11.68
2022-08-17T15:12:34.806Z,11.45
2022-08-17T15:15:10.471Z,10.08
2022-08-17T15:17:45.997Z,23.42
2022-08-17T15:20:24.028Z,14.55
2022-08-17T15:22:57.785Z,11.22
2022-08-17T15:28:05.346Z,10.45
2022-08-17T15:30:38.600Z,11.08
2022-08-17T15:33:18.006Z,9.93
2022-08-17T15:35:54.980Z,12.00
2022-08-17T15:38:28.919Z,9.68
2022-08-17T15:41:02.742Z,9.68
2022-08-17T15:43:38.759Z,12.33
2022-08-17T15:46:21.459Z,11.22
2022-08-17T15:48:59.422Z,11.68
2022-08-17T15:51:35.869Z,12.70
2022-08-17T15:54:19.067Z,15.90
2022-08-17T15:56:46.724Z,13.60
2022-08-17T15:59:19.606Z,16.42
2022-08-17T16:03:13.848Z,31.30
2022-08-17T16:04:31.046Z,12.78
2022-08-17T16:07:02.719Z,11.90
2022-08-17T16:09:39.246Z,9.60
2022-08-17T16:12:17.023Z,15.28
2022-08-17T16:14:53.576Z,12.43
2022-08-17T16:17:39.165Z,14.03
2022-08-17T16:20:01.480Z,12.70
2022-08-17T16:22:38.277Z,10.90
2022-08-17T16:25:19.081Z,11.43
2022-08-17T16:27:53.841Z,13.10
2022-08-17T16:30:30.266Z,16.52
2022-08-17T16:33:04.210Z,12.45
2022-08-17T16:35:37.160Z,11.08
2022-08-17T16:38:11.172Z,12.95
2022-08-17T16:40:44.293Z,12.30
2022-08-17T16:43:17.605Z,13.57
2022-08-17T16:45:52.228Z,14.40
2022-08-17T16:48:25.522Z,13.88
2022-08-17T16:51:03.485Z,14.15
2022-08-17T16:53:34.463Z,13.83
2022-08-17T16:56:07.710Z,15.88
2022-08-17T16:58:40.961Z,20.25
2022-08-17T17:01:16.119Z,17.55
2022-08-17T17:03:58.062Z,17.35
2022-08-17T17:06:55.446Z,13.88
2022-08-17T17:09:32.455Z,13.35
2022-08-17T17:12:09.527Z,14.93
2022-08-17T17:14:46.260Z,14.28
2022-08-17T17:17:35.992Z,16.65
2022-08-17T17:20:22.110Z,15.88
2022-08-17T17:23:02.451Z,14.45
2022-08-17T17:25:49.012Z,15.40
2022-08-17T17:29:09.243Z,14.28
2022-08-17T17:31:49.884Z,14.70
2022-08-17T17:34:23.466Z,14.35
2022-08-17T17:36:59.309Z,17.87
2022-08-17T17:39:55.196Z,27.02
2022-08-17T17:42:31.067Z,22.75
2022-08-17T17:45:17.563Z,18.10
2022-08-17T17:47:53.943Z,70.25
2022-08-17T17:50:41.062Z,21.90
2022-08-17T17:53:22.610Z,23.00
2022-08-17T17:56:06.651Z,16.87
2022-08-17T17:59:11.205Z,16.70
2022-08-17T18:02:10.061Z,15.28
2022-08-17T18:04:51.370Z,13.58
2022-08-17T18:07:37.863Z,17.07
2022-08-17T18:10:31.680Z,17.10
2022-08-17T18:13:50.908Z,11.85
2022-08-17T18:16:25.329Z,13.98
2022-08-17T18:18:58.264Z,16.07
2022-08-17T18:21:42.147Z,17.10
2022-08-17T18:24:15.873Z,13.80
2022-08-17T18:26:53.401Z,14.85
2022-08-17T18:29:45.874Z,12.47
2022-08-17T18:32:42.340Z,13.68
2022-08-17T18:35:24.117Z,12.85
2022-08-17T18:41:05.057Z,14.35
2022-08-17T18:43:52.895Z,11.97
2022-08-17T18:46:30.599Z,14.95
2022-08-17T18:49:08.751Z,11.65
2022-08-17T18:51:44.348Z,15.25
2022-08-17T18:54:27.739Z,18.40
2022-08-17T18:57:02.490Z,13.90
2022-08-17T18:59:47.453Z,13.85
2022-08-17T19:02:43.327Z,11.93
2022-08-17T19:05:11.008Z,16.57
2022-08-17T19:07:48.201Z,13.68
2022-08-17T19:10:29.114Z,13.80
2022-08-17T19:13:13.961Z,14.05
2022-08-17T19:16:14.360Z,14.58
2022-08-17T19:18:41.770Z,14.15
2022-08-17T19:21:23.144Z,14.28
2022-08-17T19:24:19.976Z,12.78
2022-08-17T19:27:03.323Z,12.80
2022-08-17T19:30:07.802Z,13.30
2022-08-17T19:32:38.431Z,12.68
2022-08-17T19:35:17.352Z,14.25
2022-08-17T19:38:04.551Z,16.45
2022-08-17T19:40:53.990Z,13.32
2022-08-17T19:43:53.885Z,18.15
2022-08-17T19:46:37.375Z,14.87
2022-08-17T19:49:33.415Z,14.33
2022-08-17T19:52:16.580Z,17.67
2022-08-17T19:55:00.685Z,17.60
2022-08-17T19:58:18.130Z,15.35
2022-08-17T20:00:54.821Z,17.02
2022-08-17T20:03:53.426Z,16.15
2022-08-17T20:06:27.617Z,14.45
2022-08-17T20:09:15.325Z,18.67
2022-08-17T20:11:57.911Z,13.75
2022-08-17T20:14:41.701Z,15.20
2022-08-17T20:17:16.408Z,21.90
2022-08-17T20:19:59.524Z,16.07
2022-08-17T20:22:46.719Z,17.42
2022-08-17T20:25:36.806Z,16.77
2022-08-17T20:28:29.817Z,21.45
2022-08-17T20:31:05.038Z,14.60
2022-08-17T20:33:39.729Z,16.87
2022-08-17T20:36:22.739Z,16.52
2022-08-17T20:38:58.689Z,23.52
2022-08-17T20:41:33.231Z,17.35
2022-08-17T20:44:07.700Z,19.12
2022-08-17T20:46:45.377Z,14.87
2022-08-17T20:49:32.063Z,19.92
2022-08-17T20:52:13.737Z,16.87
2022-08-17T20:54:53.968Z,14.47
2022-08-17T20:57:40.197Z,16.62
2022-08-17T21:00:32.910Z,16.57
2022-08-17T21:03:28.480Z,16.77
2022-08-17T21:06:17.645Z,17.73
2022-08-17T21:08:54.586Z,17.17
2022-08-17T21:11:57.134Z,16.60
2022-08-17T21:14:29.309Z,17.90
2022-08-17T21:17:38.555Z,17.20
2022-08-17T21:20:32.608Z,16.75
2022-08-17T21:23:33.688Z,16.23
2022-08-17T21:26:50.130Z,16.97
2022-08-17T21:29:30.811Z,20.02
2022-08-17T21:32:12.208Z,18.32
2022-08-17T21:35:07.097Z,17.62
2022-08-17T21:37:48.913Z,17.48
2022-08-17T21:40:31.215Z,20.88
2022-08-17T21:43:17.475Z,16.67
2022-08-17T21:46:06.479Z,16.60
2022-08-17T21:48:49.947Z,16.32
2022-08-17T21:51:30.396Z,19.02
2022-08-17T21:54:25.963Z,17.10
2022-08-17T21:56:59.573Z,18.00
2022-08-17T21:59:38.905Z,18.35
2022-08-17T22:02:25.660Z,17.20
2022-08-17T22:05:11.879Z,20.10
2022-08-17T22:07:50.917Z,16.85
2022-08-17T22:10:39.795Z,19.45
2022-08-17T22:13:22.417Z,17.85
2022-08-17T22:16:29.509Z,18.07
2022-08-17T22:18:53.844Z,16.85
2022-08-17T22:21:27.081Z,15.08
2022-08-17T22:24:20.917Z,17.73
2022-08-17T22:27:13.090Z,18.07
2022-08-17T22:30:01.091Z,14.85
2022-08-17T22:32:47.313Z,17.20
2022-08-17T22:35:31.656Z,19.55
2022-08-17T22:38:26.527Z,17.15
2022-08-17T22:41:09.750Z,17.27
2022-08-17T22:43:44.683Z,16.05
2022-08-17T22:46:17.678Z,16.62
2022-08-17T22:48:56.143Z,16.65
2022-08-17T22:51:31.351Z,15.38
2022-08-17T22:54:25.878Z,16.70
2022-08-17T22:57:19.875Z,16.85
2022-08-17T22:59:56.143Z,18.27
2022-08-17T23:02:32.538Z,14.50
2022-08-17T23:05:19.049Z,19.15
2022-08-17T23:07:53.626Z,23.25
2022-08-17T23:10:28.605Z,18.92
2022-08-17T23:13:03.243Z,15.93
2022-08-17T23:15:37.837Z,17.23
2022-08-17T23:20:43.472Z,17.73
2022-08-17T23:23:18.797Z,16.70
2022-08-17T23:25:51.290Z,16.87
2022-08-17T23:28:24.164Z,15.32
2022-08-17T23:30:56.933Z,19.07
2022-08-17T23:33:36.146Z,18.50
2022-08-17T23:36:12.557Z,18.02
2022-08-17T23:38:48.652Z,19.95
2022-08-17T23:41:23.393Z,20.43
2022-08-17T23:43:56.279Z,20.20
2022-08-17T23:46:29.266Z,20.33
2022-08-17T23:49:03.523Z,18.52
2022-08-17T23:51:41.412Z,18.40
2022-08-17T23:54:27.699Z,20.02
2022-08-17T23:57:01.569Z,20.00
2022-08-17T23:59:37.029Z,20.35
